sensor_id;sensor_type;location;lat;lon;timestamp;P1;durP1;ratioP1;P2;durP2;ratioP2
56830;SDS011;42713;42.676;23.352;2023-09-08T00:01:23;15.77;;;10.07;;
56830;SDS011;42713;42.676;23.352;2023-09-08T00:03:49;14.82;;;9.85;;
56830;SDS011;42713;42.676;23.352;2023-09-08T00:06:15;13.75;;;9.77;;
56830;SDS011;42713;42.676;23.352;2023-09-08T00:08:40;15.00;;;9.23;;
56830;SDS011;42713;42.676;23.352;2023-09-08T00:11:06;15.50;;;9.68;;
56830;SDS011;42713;42.676;23.352;2023-09-08T00:13:32;13.25;;;9.63;;
56830;SDS011;42713;42.676;23.352;2023-09-08T00:15:58;16.58;;;9.13;;
56830;SDS011;42713;42.676;23.352;2023-09-08T00:18:23;15.13;;;9.10;;
56830;SDS011;42713;42.676;23.352;2023-09-08T00:20:48;14.02;;;9.10;;
56830;SDS011;42713;42.676;23.352;2023-09-08T00:23:14;14.90;;;9.40;;
56830;SDS011;42713;42.676;23.352;2023-09-08T00:25:40;15.52;;;9.35;;
56830;SDS011;42713;42.676;23.352;2023-09-08T00:28:05;15.50;;;8.65;;
56830;SDS011;42713;42.676;23.352;2023-09-08T00:30:31;13.93;;;8.02;;
56830;SDS011;42713;42.676;23.352;2023-09-08T00:32:57;14.82;;;7.85;;
56830;SDS011;42713;42.676;23.352;2023-09-08T00:35:22;11.85;;;7.85;;
56830;SDS011;42713;42.676;23.352;2023-09-08T00:37:48;12.05;;;6.82;;
56830;SDS011;42713;42.676;23.352;2023-09-08T00:40:13;12.30;;;7.15;;
56830;SDS011;42713;42.676;23.352;2023-09-08T00:42:39;13.20;;;6.32;;
56830;SDS011;42713;42.676;23.352;2023-09-08T00:45:04;13.90;;;5.93;;
56830;SDS011;42713;42.676;23.352;2023-09-08T00:47:31;10.73;;;5.93;;
56830;SDS011;42713;42.676;23.352;2023-09-08T00:49:56;13.95;;;6.20;;
56830;SDS011;42713;42.676;23.352;2023-09-08T00:52:40;12.02;;;5.47;;
56830;SDS011;42713;42.676;23.352;2023-09-08T00:55:05;11.18;;;5.35;;
56830;SDS011;42713;42.676;23.352;2023-09-08T00:57:32;10.02;;;5.45;;
56830;SDS011;42713;42.676;23.352;2023-09-08T00:59:57;10.98;;;5.07;;
56830;SDS011;42713;42.676;23.352;2023-09-08T01:02:23;9.55;;;4.55;;
56830;SDS011;42713;42.676;23.352;2023-09-08T01:04:48;8.82;;;4.53;;
56830;SDS011;42713;42.676;23.352;2023-09-08T01:07:15;9.70;;;4.40;;
56830;SDS011;42713;42.676;23.352;2023-09-08T01:09:41;10.25;;;4.72;;
56830;SDS011;42713;42.676;23.352;2023-09-08T01:12:07;9.00;;;4.28;;
56830;SDS011;42713;42.676;23.352;2023-09-08T01:14:38;10.25;;;4.65;;
56830;SDS011;42713;42.676;23.352;2023-09-08T01:17:04;9.13;;;4.43;;
56830;SDS011;42713;42.676;23.352;2023-09-08T01:19:29;10.60;;;4.10;;
56830;SDS011;42713;42.676;23.352;2023-09-08T01:25:22;9.70;;;4.15;;
56830;SDS011;42713;42.676;23.352;2023-09-08T01:27:47;9.45;;;4.22;;
56830;SDS011;42713;42.676;23.352;2023-09-08T01:30:15;11.73;;;4.50;;
56830;SDS011;42713;42.676;23.352;2023-09-08T01:32:42;12.35;;;4.57;;
56830;SDS011;42713;42.676;23.352;2023-09-08T01:35:09;11.48;;;4.78;;
56830;SDS011;42713;42.676;23.352;2023-09-08T01:37:35;12.05;;;4.30;;
56830;SDS011;42713;42.676;23.352;2023-09-08T01:40:04;11.15;;;4.80;;
56830;SDS011;42713;42.676;23.352;2023-09-08T01:42:30;9.82;;;5.32;;
56830;SDS011;42713;42.676;23.352;2023-09-08T01:44:56;13.65;;;4.95;;
56830;SDS011;42713;42.676;23.352;2023-09-08T01:47:21;8.90;;;4.85;;
56830;SDS011;42713;42.676;23.352;2023-09-08T01:49:46;9.77;;;5.18;;
56830;SDS011;42713;42.676;23.352;2023-09-08T01:52:12;9.85;;;4.55;;
56830;SDS011;42713;42.676;23.352;2023-09-08T01:54:37;9.45;;;4.97;;
56830;SDS011;42713;42.676;23.352;2023-09-08T01:57:03;12.30;;;5.40;;
56830;SDS011;42713;42.676;23.352;2023-09-08T01:59:28;11.35;;;5.32;;
56830;SDS011;42713;42.676;23.352;2023-09-08T02:01:54;12.35;;;5.18;;
56830;SDS011;42713;42.676;23.352;2023-09-08T02:04:19;11.82;;;5.10;;
56830;SDS011;42713;42.676;23.352;2023-09-08T02:06:44;11.13;;;5.30;;
56830;SDS011;42713;42.676;23.352;2023-09-08T02:09:14;9.98;;;5.47;;
56830;SDS011;42713;42.676;23.352;2023-09-08T02:11:40;11.73;;;5.47;;
56830;SDS011;42713;42.676;23.352;2023-09-08T02:14:07;9.48;;;5.18;;
56830;SDS011;42713;42.676;23.352;2023-09-08T02:16:34;14.95;;;5.68;;
56830;SDS011;42713;42.676;23.352;2023-09-08T02:18:59;12.57;;;5.40;;
56830;SDS011;42713;42.676;23.352;2023-09-08T02:21:24;12.57;;;5.43;;
56830;SDS011;42713;42.676;23.352;2023-09-08T02:23:50;12.95;;;5.95;;
56830;SDS011;42713;42.676;23.352;2023-09-08T02:26:15;11.20;;;5.30;;
56830;SDS011;42713;42.676;23.352;2023-09-08T02:28:41;11.95;;;5.85;;
56830;SDS011;42713;42.676;23.352;2023-09-08T02:31:06;10.85;;;5.93;;
56830;SDS011;42713;42.676;23.352;2023-09-08T02:33:32;11.35;;;5.60;;
56830;SDS011;42713;42.676;23.352;2023-09-08T02:36:04;9.93;;;5.57;;
56830;SDS011;42713;42.676;23.352;2023-09-08T02:38:32;11.35;;;5.50;;
56830;SDS011;42713;42.676;23.352;2023-09-08T02:40:58;12.20;;;5.78;;
56830;SDS011;42713;42.676;23.352;2023-09-08T02:43:24;12.55;;;6.40;;
56830;SDS011;42713;42.676;23.352;2023-09-08T02:45:49;11.65;;;5.82;;
56830;SDS011;42713;42.676;23.352;2023-09-08T02:48:15;16.00;;;6.07;;
56830;SDS011;42713;42.676;23.352;2023-09-08T02:50:41;10.90;;;6.15;;
56830;SDS011;42713;42.676;23.352;2023-09-08T02:53:07;14.77;;;6.43;;
56830;SDS011;42713;42.676;23.352;2023-09-08T02:55:32;16.45;;;6.45;;
56830;SDS011;42713;42.676;23.352;2023-09-08T02:57:58;12.23;;;6.88;;
56830;SDS011;42713;42.676;23.352;2023-09-08T03:00:24;13.57;;;6.45;;
56830;SDS011;42713;42.676;23.352;2023-09-08T03:02:49;13.60;;;6.30;;
56830;SDS011;42713;42.676;23.352;2023-09-08T03:05:15;12.68;;;6.65;;
56830;SDS011;42713;42.676;23.352;2023-09-08T03:07:40;12.85;;;6.55;;
56830;SDS011;42713;42.676;23.352;2023-09-08T03:10:06;14.98;;;6.40;;
56830;SDS011;42713;42.676;23.352;2023-09-08T03:12:32;13.35;;;6.47;;
56830;SDS011;42713;42.676;23.352;2023-09-08T03:14:57;14.07;;;6.75;;
56830;SDS011;42713;42.676;23.352;2023-09-08T03:17:22;13.25;;;6.45;;
56830;SDS011;42713;42.676;23.352;2023-09-08T03:19:48;16.02;;;6.85;;
56830;SDS011;42713;42.676;23.352;2023-09-08T03:22:13;15.68;;;6.57;;
56830;SDS011;42713;42.676;23.352;2023-09-08T03:24:39;11.70;;;6.55;;
56830;SDS011;42713;42.676;23.352;2023-09-08T03:27:04;13.95;;;6.55;;
56830;SDS011;42713;42.676;23.352;2023-09-08T03:29:30;14.00;;;7.00;;
56830;SDS011;42713;42.676;23.352;2023-09-08T03:31:55;14.15;;;6.82;;
56830;SDS011;42713;42.676;23.352;2023-09-08T03:34:20;12.23;;;6.13;;
56830;SDS011;42713;42.676;23.352;2023-09-08T03:36:47;11.10;;;6.82;;
56830;SDS011;42713;42.676;23.352;2023-09-08T03:39:14;15.85;;;6.70;;
56830;SDS011;42713;42.676;23.352;2023-09-08T03:41:39;11.35;;;6.82;;
56830;SDS011;42713;42.676;23.352;2023-09-08T03:44:05;12.13;;;6.57;;
56830;SDS011;42713;42.676;23.352;2023-09-08T03:46:30;17.65;;;8.20;;
56830;SDS011;42713;42.676;23.352;2023-09-08T03:48:56;15.73;;;8.20;;
56830;SDS011;42713;42.676;23.352;2023-09-08T03:51:25;14.65;;;7.60;;
56830;SDS011;42713;42.676;23.352;2023-09-08T03:53:53;14.98;;;7.78;;
56830;SDS011;42713;42.676;23.352;2023-09-08T03:56:18;14.40;;;6.57;;
56830;SDS011;42713;42.676;23.352;2023-09-08T03:58:45;12.07;;;6.57;;
56830;SDS011;42713;42.676;23.352;2023-09-08T04:01:11;13.55;;;7.35;;
56830;SDS011;42713;42.676;23.352;2023-09-08T04:03:36;15.65;;;8.43;;
56830;SDS011;42713;42.676;23.352;2023-09-08T04:06:02;18.38;;;10.52;;
56830;SDS011;42713;42.676;23.352;2023-09-08T04:08:28;15.02;;;8.23;;
56830;SDS011;42713;42.676;23.352;2023-09-08T04:10:53;20.58;;;14.07;;
56830;SDS011;42713;42.676;23.352;2023-09-08T04:13:19;16.58;;;8.27;;
56830;SDS011;42713;42.676;23.352;2023-09-08T04:15:44;15.75;;;7.60;;
56830;SDS011;42713;42.676;23.352;2023-09-08T04:18:10;14.38;;;7.65;;
56830;SDS011;42713;42.676;23.352;2023-09-08T04:20:35;17.33;;;8.15;;
56830;SDS011;42713;42.676;23.352;2023-09-08T04:23:01;14.75;;;7.95;;
56830;SDS011;42713;42.676;23.352;2023-09-08T04:25:27;15.25;;;7.43;;
56830;SDS011;42713;42.676;23.352;2023-09-08T04:27:52;15.98;;;7.97;;
56830;SDS011;42713;42.676;23.352;2023-09-08T04:30:18;18.38;;;7.35;;
56830;SDS011;42713;42.676;23.352;2023-09-08T04:32:43;17.70;;;7.70;;
56830;SDS011;42713;42.676;23.352;2023-09-08T04:35:09;14.50;;;7.55;;
56830;SDS011;42713;42.676;23.352;2023-09-08T04:37:35;17.25;;;7.50;;
56830;SDS011;42713;42.676;23.352;2023-09-08T04:40:02;13.43;;;7.72;;
56830;SDS011;42713;42.676;23.352;2023-09-08T04:42:28;15.95;;;7.60;;
56830;SDS011;42713;42.676;23.352;2023-09-08T04:44:54;16.48;;;7.95;;
56830;SDS011;42713;42.676;23.352;2023-09-08T04:47:20;14.48;;;7.22;;
56830;SDS011;42713;42.676;23.352;2023-09-08T04:49:45;18.00;;;7.55;;
56830;SDS011;42713;42.676;23.352;2023-09-08T04:52:11;14.23;;;6.90;;
56830;SDS011;42713;42.676;23.352;2023-09-08T04:54:37;13.68;;;7.30;;
56830;SDS011;42713;42.676;23.352;2023-09-08T04:57:02;13.70;;;6.90;;
56830;SDS011;42713;42.676;23.352;2023-09-08T04:59:28;17.13;;;7.03;;
56830;SDS011;42713;42.676;23.352;2023-09-08T05:01:53;19.35;;;7.95;;
56830;SDS011;42713;42.676;23.352;2023-09-08T05:04:19;17.80;;;7.35;;
56830;SDS011;42713;42.676;23.352;2023-09-08T05:06:44;14.77;;;8.00;;
56830;SDS011;42713;42.676;23.352;2023-09-08T05:09:10;12.32;;;7.53;;
56830;SDS011;42713;42.676;23.352;2023-09-08T05:11:35;14.73;;;7.88;;
56830;SDS011;42713;42.676;23.352;2023-09-08T05:14:01;12.98;;;7.10;;
56830;SDS011;42713;42.676;23.352;2023-09-08T05:16:27;15.27;;;7.78;;
56830;SDS011;42713;42.676;23.352;2023-09-08T05:19:03;16.15;;;7.38;;
56830;SDS011;42713;42.676;23.352;2023-09-08T05:21:30;14.00;;;6.95;;
56830;SDS011;42713;42.676;23.352;2023-09-08T05:23:59;19.33;;;7.72;;
56830;SDS011;42713;42.676;23.352;2023-09-08T05:26:24;15.13;;;7.15;;
56830;SDS011;42713;42.676;23.352;2023-09-08T05:28:50;16.13;;;6.63;;
56830;SDS011;42713;42.676;23.352;2023-09-08T05:31:15;13.55;;;6.22;;
56830;SDS011;42713;42.676;23.352;2023-09-08T05:33:41;13.23;;;6.10;;
56830;SDS011;42713;42.676;23.352;2023-09-08T05:36:06;11.63;;;5.93;;
56830;SDS011;42713;42.676;23.352;2023-09-08T05:38:32;12.57;;;6.35;;
56830;SDS011;42713;42.676;23.352;2023-09-08T05:40:57;13.63;;;6.55;;
56830;SDS011;42713;42.676;23.352;2023-09-08T05:43:24;18.08;;;6.50;;
56830;SDS011;42713;42.676;23.352;2023-09-08T05:45:50;13.73;;;6.53;;
56830;SDS011;42713;42.676;23.352;2023-09-08T05:48:15;14.73;;;6.35;;
56830;SDS011;42713;42.676;23.352;2023-09-08T05:50:41;15.98;;;6.05;;
56830;SDS011;42713;42.676;23.352;2023-09-08T05:53:07;15.07;;;6.22;;
56830;SDS011;42713;42.676;23.352;2023-09-08T05:55:32;12.02;;;5.63;;
56830;SDS011;42713;42.676;23.352;2023-09-08T05:57:59;10.13;;;5.20;;
56830;SDS011;42713;42.676;23.352;2023-09-08T06:00:24;13.05;;;5.00;;
56830;SDS011;42713;42.676;23.352;2023-09-08T06:02:50;10.95;;;4.47;;
56830;SDS011;42713;42.676;23.352;2023-09-08T06:05:15;9.93;;;4.88;;
56830;SDS011;42713;42.676;23.352;2023-09-08T06:07:41;15.18;;;4.97;;
56830;SDS011;42713;42.676;23.352;2023-09-08T06:10:07;14.48;;;4.72;;
56830;SDS011;42713;42.676;23.352;2023-09-08T06:12:33;9.25;;;4.90;;
56830;SDS011;42713;42.676;23.352;2023-09-08T06:14:58;17.65;;;5.50;;
56830;SDS011;42713;42.676;23.352;2023-09-08T06:17:24;10.23;;;4.70;;
56830;SDS011;42713;42.676;23.352;2023-09-08T06:19:49;12.93;;;4.90;;
56830;SDS011;42713;42.676;23.352;2023-09-08T06:22:15;12.70;;;4.63;;
56830;SDS011;42713;42.676;23.352;2023-09-08T06:24:40;10.13;;;4.40;;
56830;SDS011;42713;42.676;23.352;2023-09-08T06:27:06;12.25;;;4.70;;
56830;SDS011;42713;42.676;23.352;2023-09-08T06:29:31;16.05;;;4.45;;
56830;SDS011;42713;42.676;23.352;2023-09-08T06:31:57;11.65;;;4.20;;
56830;SDS011;42713;42.676;23.352;2023-09-08T06:34:22;11.85;;;3.95;;
56830;SDS011;42713;42.676;23.352;2023-09-08T06:36:48;12.43;;;4.22;;
56830;SDS011;42713;42.676;23.352;2023-09-08T06:39:14;9.60;;;4.38;;
56830;SDS011;42713;42.676;23.352;2023-09-08T06:41:39;11.93;;;4.07;;
56830;SDS011;42713;42.676;23.352;2023-09-08T06:44:05;14.10;;;4.22;;
56830;SDS011;42713;42.676;23.352;2023-09-08T06:46:31;11.52;;;3.47;;
56830;SDS011;42713;42.676;23.352;2023-09-08T06:48:56;9.65;;;3.47;;
56830;SDS011;42713;42.676;23.352;2023-09-08T06:51:22;9.30;;;4.13;;
56830;SDS011;42713;42.676;23.352;2023-09-08T06:53:54;11.30;;;3.50;;
56830;SDS011;42713;42.676;23.352;2023-09-08T06:56:21;8.05;;;3.58;;
56830;SDS011;42713;42.676;23.352;2023-09-08T06:58:47;10.23;;;3.38;;
56830;SDS011;42713;42.676;23.352;2023-09-08T07:01:12;10.45;;;3.70;;
56830;SDS011;42713;42.676;23.352;2023-09-08T07:03:38;12.02;;;5.10;;
56830;SDS011;42713;42.676;23.352;2023-09-08T07:06:03;12.68;;;4.00;;
56830;SDS011;42713;42.676;23.352;2023-09-08T07:08:29;9.38;;;3.33;;
56830;SDS011;42713;42.676;23.352;2023-09-08T07:10:54;11.55;;;3.40;;
56830;SDS011;42713;42.676;23.352;2023-09-08T07:13:20;13.50;;;3.58;;
56830;SDS011;42713;42.676;23.352;2023-09-08T07:15:46;15.63;;;3.40;;
56830;SDS011;42713;42.676;23.352;2023-09-08T07:18:11;9.23;;;3.25;;
56830;SDS011;42713;42.676;23.352;2023-09-08T07:20:37;10.13;;;3.53;;
56830;SDS011;42713;42.676;23.352;2023-09-08T07:23:02;8.48;;;3.65;;
56830;SDS011;42713;42.676;23.352;2023-09-08T07:25:28;11.80;;;4.63;;
56830;SDS011;42713;42.676;23.352;2023-09-08T07:27:53;13.63;;;3.63;;
56830;SDS011;42713;42.676;23.352;2023-09-08T07:30:19;7.40;;;3.10;;
56830;SDS011;42713;42.676;23.352;2023-09-08T07:32:45;9.23;;;3.20;;
56830;SDS011;42713;42.676;23.352;2023-09-08T07:35:10;8.05;;;2.97;;
56830;SDS011;42713;42.676;23.352;2023-09-08T07:37:40;17.73;;;3.53;;
56830;SDS011;42713;42.676;23.352;2023-09-08T07:40:07;7.68;;;3.00;;
56830;SDS011;42713;42.676;23.352;2023-09-08T07:42:34;8.00;;;3.20;;
56830;SDS011;42713;42.676;23.352;2023-09-08T07:44:59;11.18;;;3.38;;
56830;SDS011;42713;42.676;23.352;2023-09-08T07:47:25;6.78;;;3.05;;
56830;SDS011;42713;42.676;23.352;2023-09-08T07:49:51;8.60;;;3.40;;
56830;SDS011;42713;42.676;23.352;2023-09-08T07:52:16;9.70;;;3.22;;
56830;SDS011;42713;42.676;23.352;2023-09-08T07:54:42;10.60;;;3.17;;
56830;SDS011;42713;42.676;23.352;2023-09-08T07:57:07;7.20;;;3.33;;
56830;SDS011;42713;42.676;23.352;2023-09-08T07:59:33;8.23;;;3.20;;
56830;SDS011;42713;42.676;23.352;2023-09-08T08:01:58;8.80;;;3.20;;
56830;SDS011;42713;42.676;23.352;2023-09-08T08:04:24;8.90;;;3.90;;
56830;SDS011;42713;42.676;23.352;2023-09-08T08:06:50;10.55;;;4.80;;
56830;SDS011;42713;42.676;23.352;2023-09-08T08:09:15;8.00;;;3.97;;
56830;SDS011;42713;42.676;23.352;2023-09-08T08:11:41;10.88;;;4.22;;
56830;SDS011;42713;42.676;23.352;2023-09-08T08:14:06;9.50;;;3.30;;
56830;SDS011;42713;42.676;23.352;2023-09-08T08:16:32;13.20;;;3.45;;
56830;SDS011;42713;42.676;23.352;2023-09-08T08:18:57;12.57;;;3.38;;
56830;SDS011;42713;42.676;23.352;2023-09-08T08:21:24;12.05;;;3.67;;
56830;SDS011;42713;42.676;23.352;2023-09-08T08:23:49;10.48;;;3.38;;
56830;SDS011;42713;42.676;23.352;2023-09-08T08:26:15;9.32;;;3.13;;
56830;SDS011;42713;42.676;23.352;2023-09-08T08:28:42;13.40;;;3.50;;
56830;SDS011;42713;42.676;23.352;2023-09-08T08:31:07;7.68;;;3.05;;
56830;SDS011;42713;42.676;23.352;2023-09-08T08:33:33;10.55;;;3.40;;
56830;SDS011;42713;42.676;23.352;2023-09-08T08:35:58;7.97;;;2.90;;
56830;SDS011;42713;42.676;23.352;2023-09-08T08:38:24;10.18;;;3.25;;
56830;SDS011;42713;42.676;23.352;2023-09-08T08:40:50;7.78;;;2.75;;
56830;SDS011;42713;42.676;23.352;2023-09-08T08:43:15;7.15;;;2.83;;
56830;SDS011;42713;42.676;23.352;2023-09-08T08:45:41;10.02;;;3.83;;
56830;SDS011;42713;42.676;23.352;2023-09-08T08:48:08;9.23;;;3.15;;
56830;SDS011;42713;42.676;23.352;2023-09-08T08:50:37;9.75;;;3.13;;
56830;SDS011;42713;42.676;23.352;2023-09-08T08:53:05;10.25;;;2.58;;
56830;SDS011;42713;42.676;23.352;2023-09-08T08:55:31;8.30;;;2.70;;
56830;SDS011;42713;42.676;23.352;2023-09-08T08:58:05;8.93;;;2.90;;
56830;SDS011;42713;42.676;23.352;2023-09-08T09:00:35;6.65;;;2.95;;
56830;SDS011;42713;42.676;23.352;2023-09-08T09:03:07;8.75;;;2.88;;
56830;SDS011;42713;42.676;23.352;2023-09-08T09:05:34;8.32;;;3.00;;
56830;SDS011;42713;42.676;23.352;2023-09-08T09:08:02;9.05;;;3.45;;
56830;SDS011;42713;42.676;23.352;2023-09-08T09:10:30;10.57;;;2.97;;
56830;SDS011;42713;42.676;23.352;2023-09-08T09:12:56;10.73;;;2.90;;
56830;SDS011;42713;42.676;23.352;2023-09-08T09:15:31;7.75;;;2.70;;
56830;SDS011;42713;42.676;23.352;2023-09-08T09:18:01;7.95;;;2.88;;
56830;SDS011;42713;42.676;23.352;2023-09-08T09:20:29;8.85;;;3.22;;
56830;SDS011;42713;42.676;23.352;2023-09-08T09:22:54;6.07;;;2.90;;
56830;SDS011;42713;42.676;23.352;2023-09-08T09:25:21;7.53;;;2.83;;
56830;SDS011;42713;42.676;23.352;2023-09-08T09:27:52;6.63;;;2.72;;
56830;SDS011;42713;42.676;23.352;2023-09-08T09:30:22;7.22;;;2.78;;
56830;SDS011;42713;42.676;23.352;2023-09-08T09:32:50;6.90;;;3.13;;
56830;SDS011;42713;42.676;23.352;2023-09-08T09:38:30;10.43;;;3.33;;
56830;SDS011;42713;42.676;23.352;2023-09-08T09:40:56;10.27;;;3.22;;
56830;SDS011;42713;42.676;23.352;2023-09-08T09:43:22;7.90;;;3.05;;
56830;SDS011;42713;42.676;23.352;2023-09-08T09:45:48;7.75;;;2.97;;
56830;SDS011;42713;42.676;23.352;2023-09-08T09:48:13;12.70;;;3.10;;
56830;SDS011;42713;42.676;23.352;2023-09-08T09:50:40;7.28;;;2.95;;
56830;SDS011;42713;42.676;23.352;2023-09-08T09:55:36;7.60;;;3.00;;
56830;SDS011;42713;42.676;23.352;2023-09-08T09:58:06;9.73;;;3.10;;
56830;SDS011;42713;42.676;23.352;2023-09-08T10:00:32;7.43;;;2.97;;
56830;SDS011;42713;42.676;23.352;2023-09-08T10:02:59;7.32;;;3.05;;
56830;SDS011;42713;42.676;23.352;2023-09-08T10:05:25;7.53;;;3.30;;
56830;SDS011;42713;42.676;23.352;2023-09-08T10:07:52;7.22;;;3.10;;
56830;SDS011;42713;42.676;23.352;2023-09-08T10:10:18;8.98;;;3.13;;
56830;SDS011;42713;42.676;23.352;2023-09-08T10:12:46;11.27;;;3.35;;
56830;SDS011;42713;42.676;23.352;2023-09-08T10:15:19;9.82;;;3.30;;
56830;SDS011;42713;42.676;23.352;2023-09-08T10:17:47;11.23;;;3.55;;
56830;SDS011;42713;42.676;23.352;2023-09-08T10:20:24;8.32;;;3.47;;
56830;SDS011;42713;42.676;23.352;2023-09-08T10:22:53;9.90;;;3.28;;
56830;SDS011;42713;42.676;23.352;2023-09-08T10:25:24;7.15;;;3.05;;
56830;SDS011;42713;42.676;23.352;2023-09-08T10:27:51;9.17;;;3.37;;
56830;SDS011;42713;42.676;23.352;2023-09-08T10:30:19;8.80;;;3.60;;
56830;SDS011;42713;42.676;23.352;2023-09-08T10:32:46;9.40;;;3.70;;
56830;SDS011;42713;42.676;23.352;2023-09-08T10:35:15;7.35;;;3.08;;
56830;SDS011;42713;42.676;23.352;2023-09-08T10:37:42;7.35;;;3.20;;
56830;SDS011;42713;42.676;23.352;2023-09-08T10:40:29;9.00;;;2.90;;
56830;SDS011;42713;42.676;23.352;2023-09-08T10:43:08;7.10;;;3.03;;
56830;SDS011;42713;42.676;23.352;2023-09-08T10:45:34;7.88;;;2.78;;
56830;SDS011;42713;42.676;23.352;2023-09-08T10:48:00;12.05;;;3.28;;
56830;SDS011;42713;42.676;23.352;2023-09-08T10:50:27;14.77;;;3.35;;
56830;SDS011;42713;42.676;23.352;2023-09-08T10:55:48;13.57;;;3.25;;
56830;SDS011;42713;42.676;23.352;2023-09-08T10:58:30;9.52;;;3.05;;
56830;SDS011;42713;42.676;23.352;2023-09-08T11:01:02;10.38;;;3.17;;
56830;SDS011;42713;42.676;23.352;2023-09-08T11:06:06;8.98;;;2.83;;
56830;SDS011;42713;42.676;23.352;2023-09-08T11:08:33;10.98;;;3.67;;
56830;SDS011;42713;42.676;23.352;2023-09-08T11:11:00;8.50;;;3.22;;
56830;SDS011;42713;42.676;23.352;2023-09-08T11:13:27;10.90;;;3.20;;
56830;SDS011;42713;42.676;23.352;2023-09-08T11:15:55;8.23;;;3.30;;
56830;SDS011;42713;42.676;23.352;2023-09-08T11:18:27;8.85;;;3.33;;
56830;SDS011;42713;42.676;23.352;2023-09-08T11:20:54;7.38;;;3.13;;
56830;SDS011;42713;42.676;23.352;2023-09-08T11:23:20;11.63;;;3.13;;
56830;SDS011;42713;42.676;23.352;2023-09-08T11:25:46;7.82;;;3.40;;
56830;SDS011;42713;42.676;23.352;2023-09-08T11:28:13;10.27;;;3.63;;
56830;SDS011;42713;42.676;23.352;2023-09-08T11:30:39;7.00;;;3.10;;
56830;SDS011;42713;42.676;23.352;2023-09-08T11:33:13;9.57;;;3.50;;
56830;SDS011;42713;42.676;23.352;2023-09-08T11:35:46;11.30;;;3.70;;
56830;SDS011;42713;42.676;23.352;2023-09-08T11:38:12;14.43;;;3.50;;
56830;SDS011;42713;42.676;23.352;2023-09-08T11:40:38;12.30;;;3.53;;
56830;SDS011;42713;42.676;23.352;2023-09-08T11:43:05;8.57;;;3.17;;
56830;SDS011;42713;42.676;23.352;2023-09-08T11:45:33;10.27;;;3.33;;
56830;SDS011;42713;42.676;23.352;2023-09-08T11:47:59;11.23;;;3.20;;
56830;SDS011;42713;42.676;23.352;2023-09-08T11:50:25;11.52;;;3.40;;
56830;SDS011;42713;42.676;23.352;2023-09-08T11:52:55;8.50;;;3.28;;
56830;SDS011;42713;42.676;23.352;2023-09-08T11:55:22;8.20;;;3.55;;
56830;SDS011;42713;42.676;23.352;2023-09-08T11:57:49;9.95;;;3.20;;
56830;SDS011;42713;42.676;23.352;2023-09-08T12:00:19;10.07;;;3.45;;
56830;SDS011;42713;42.676;23.352;2023-09-08T12:02:47;8.00;;;3.70;;
56830;SDS011;42713;42.676;23.352;2023-09-08T12:05:23;8.98;;;3.15;;
56830;SDS011;42713;42.676;23.352;2023-09-08T12:07:50;13.85;;;3.38;;
56830;SDS011;42713;42.676;23.352;2023-09-08T12:10:16;8.90;;;3.03;;
56830;SDS011;42713;42.676;23.352;2023-09-08T12:12:44;9.30;;;3.30;;
56830;SDS011;42713;42.676;23.352;2023-09-08T12:17:56;8.95;;;3.50;;
56830;SDS011;42713;42.676;23.352;2023-09-08T12:20:22;20.77;;;3.88;;
56830;SDS011;42713;42.676;23.352;2023-09-08T12:22:51;11.68;;;3.92;;
56830;SDS011;42713;42.676;23.352;2023-09-08T12:25:17;9.07;;;3.23;;
56830;SDS011;42713;42.676;23.352;2023-09-08T12:27:49;9.15;;;3.55;;
56830;SDS011;42713;42.676;23.352;2023-09-08T12:30:16;10.77;;;3.05;;
56830;SDS011;42713;42.676;23.352;2023-09-08T12:32:46;10.20;;;3.60;;
56830;SDS011;42713;42.676;23.352;2023-09-08T12:35:19;7.93;;;3.47;;
56830;SDS011;42713;42.676;23.352;2023-09-08T12:37:53;9.60;;;3.30;;
56830;SDS011;42713;42.676;23.352;2023-09-08T12:40:25;8.80;;;3.05;;
56830;SDS011;42713;42.676;23.352;2023-09-08T12:42:53;11.70;;;3.15;;
56830;SDS011;42713;42.676;23.352;2023-09-08T12:45:22;10.75;;;3.25;;
56830;SDS011;42713;42.676;23.352;2023-09-08T12:47:48;11.17;;;3.50;;
56830;SDS011;42713;42.676;23.352;2023-09-08T12:50:15;9.40;;;3.50;;
56830;SDS011;42713;42.676;23.352;2023-09-08T12:52:41;7.75;;;3.00;;
56830;SDS011;42713;42.676;23.352;2023-09-08T12:55:07;6.88;;;2.88;;
56830;SDS011;42713;42.676;23.352;2023-09-08T12:57:33;7.47;;;2.92;;
56830;SDS011;42713;42.676;23.352;2023-09-08T12:59:59;9.65;;;3.20;;
56830;SDS011;42713;42.676;23.352;2023-09-08T13:02:24;7.60;;;3.25;;
56830;SDS011;42713;42.676;23.352;2023-09-08T13:04:50;7.53;;;2.85;;
56830;SDS011;42713;42.676;23.352;2023-09-08T13:07:15;9.25;;;2.92;;
56830;SDS011;42713;42.676;23.352;2023-09-08T13:09:41;8.90;;;3.05;;
56830;SDS011;42713;42.676;23.352;2023-09-08T13:12:07;11.55;;;3.17;;
56830;SDS011;42713;42.676;23.352;2023-09-08T13:14:34;11.90;;;3.05;;
56830;SDS011;42713;42.676;23.352;2023-09-08T13:17:00;9.35;;;3.60;;
56830;SDS011;42713;42.676;23.352;2023-09-08T13:19:26;8.98;;;3.20;;
56830;SDS011;42713;42.676;23.352;2023-09-08T13:21:52;8.30;;;3.25;;
56830;SDS011;42713;42.676;23.352;2023-09-08T13:24:17;8.52;;;3.00;;
56830;SDS011;42713;42.676;23.352;2023-09-08T13:26:42;10.93;;;3.35;;
56830;SDS011;42713;42.676;23.352;2023-09-08T13:29:08;13.55;;;3.38;;
56830;SDS011;42713;42.676;23.352;2023-09-08T13:31:33;9.75;;;3.30;;
56830;SDS011;42713;42.676;23.352;2023-09-08T13:33:59;9.07;;;3.17;;
56830;SDS011;42713;42.676;23.352;2023-09-08T13:36:24;9.73;;;3.15;;
56830;SDS011;42713;42.676;23.352;2023-09-08T13:38:51;7.72;;;3.30;;
56830;SDS011;42713;42.676;23.352;2023-09-08T13:41:16;7.53;;;2.80;;
56830;SDS011;42713;42.676;23.352;2023-09-08T13:43:41;9.30;;;3.03;;
56830;SDS011;42713;42.676;23.352;2023-09-08T13:46:07;8.18;;;3.88;;
56830;SDS011;42713;42.676;23.352;2023-09-08T13:48:32;9.07;;;3.33;;
56830;SDS011;42713;42.676;23.352;2023-09-08T13:51:04;12.27;;;3.70;;
56830;SDS011;42713;42.676;23.352;2023-09-08T13:53:30;13.55;;;3.50;;
56830;SDS011;42713;42.676;23.352;2023-09-08T13:58:25;10.25;;;3.25;;
56830;SDS011;42713;42.676;23.352;2023-09-08T14:00:50;8.25;;;3.13;;
56830;SDS011;42713;42.676;23.352;2023-09-08T14:03:17;8.40;;;3.00;;
56830;SDS011;42713;42.676;23.352;2023-09-08T14:05:43;8.23;;;2.88;;
56830;SDS011;42713;42.676;23.352;2023-09-08T14:08:09;7.32;;;3.33;;
56830;SDS011;42713;42.676;23.352;2023-09-08T14:10:35;6.57;;;2.90;;
56830;SDS011;42713;42.676;23.352;2023-09-08T14:13:01;11.60;;;2.95;;
56830;SDS011;42713;42.676;23.352;2023-09-08T14:15:26;8.88;;;2.92;;
56830;SDS011;42713;42.676;23.352;2023-09-08T14:17:52;8.75;;;3.30;;
56830;SDS011;42713;42.676;23.352;2023-09-08T14:20:18;10.45;;;3.15;;
56830;SDS011;42713;42.676;23.352;2023-09-08T14:22:45;10.07;;;3.22;;
56830;SDS011;42713;42.676;23.352;2023-09-08T14:25:10;7.32;;;2.80;;
56830;SDS011;42713;42.676;23.352;2023-09-08T14:27:36;8.98;;;3.20;;
56830;SDS011;42713;42.676;23.352;2023-09-08T14:30:05;8.02;;;3.03;;
56830;SDS011;42713;42.676;23.352;2023-09-08T14:32:31;11.03;;;2.90;;
56830;SDS011;42713;42.676;23.352;2023-09-08T14:34:56;7.50;;;2.60;;
56830;SDS011;42713;42.676;23.352;2023-09-08T14:37:22;8.10;;;2.78;;
56830;SDS011;42713;42.676;23.352;2023-09-08T14:39:48;8.30;;;3.08;;
56830;SDS011;42713;42.676;23.352;2023-09-08T14:42:13;8.23;;;2.92;;